createdAt,value
2022-08-21T00:00:35.449Z,100896.00
2022-08-21T00:03:13.117Z,100892.00
2022-08-21T00:05:50.914Z,100893.00
2022-08-21T00:08:22.583Z,100892.00
2022-08-21T00:10:54.016Z,100889.00
2022-08-21T00:13:24.826Z,100888.00
2022-08-21T00:15:55.511Z,100882.00
2022-08-21T00:18:28.647Z,100882.00
2022-08-21T00:20:59.167Z,100874.00
2022-08-21T00:23:29.603Z,100872.00
2022-08-21T00:26:00.081Z,100867.00
2022-08-21T00:28:30.272Z,100869.00
2022-08-21T00:31:00.630Z,100873.00
2022-08-21T00:33:34.931Z,100875.00
2022-08-21T00:36:06.476Z,100869.00
2022-08-21T00:38:36.718Z,100876.00
2022-08-21T00:41:29.875Z,100883.00
2022-08-21T00:44:01.967Z,100881.00
2022-08-21T00:46:32.433Z,100883.00
2022-08-21T00:49:05.504Z,100878.00
2022-08-21T00:51:42.589Z,100887.00
2022-08-21T00:54:18.761Z,100886.00
2022-08-21T00:56:53.277Z,100893.00
2022-08-21T00:59:25.720Z,100875.00
2022-08-21T01:01:56.271Z,100888.00
2022-08-21T01:04:29.325Z,100886.00
2022-08-21T01:07:00.082Z,100888.00
2022-08-21T01:09:30.647Z,100886.00
2022-08-21T01:12:01.052Z,100892.00
2022-08-21T01:14:31.798Z,100890.00
2022-08-21T01:17:04.210Z,100895.00
2022-08-21T01:19:37.093Z,100888.00
2022-08-21T01:22:10.958Z,100892.00
2022-08-21T01:24:42.143Z,100901.00
2022-08-21T01:27:12.423Z,100903.00
2022-08-21T01:29:48.813Z,100904.00
2022-08-21T01:32:22.648Z,100905.00
2022-08-21T01:34:55.450Z,100903.00
2022-08-21T01:37:28.386Z,100904.00
2022-08-21T01:39:59.117Z,100907.00
2022-08-21T01:42:29.568Z,100904.00
2022-08-21T01:45:00.223Z,100900.00
2022-08-21T01:47:30.785Z,100888.00
2022-08-21T01:50:01.210Z,100892.00
2022-08-21T01:52:34.325Z,100894.00
2022-08-21T01:55:04.586Z,100893.00
2022-08-21T01:57:35.272Z,100886.00
2022-08-21T02:00:07.982Z,100891.00
2022-08-21T02:02:38.282Z,100884.00
2022-08-21T02:05:09.948Z,100894.00
2022-08-21T02:07:46.876Z,100894.00
2022-08-21T02:10:20.693Z,100901.00
2022-08-21T02:12:50.860Z,100889.00
2022-08-21T02:15:22.267Z,100890.00
2022-08-21T02:17:55.689Z,100885.00
2022-08-21T02:20:30.572Z,100875.00
2022-08-21T02:23:03.532Z,100891.00
2022-08-21T02:25:34.171Z,100892.00
2022-08-21T02:28:08.922Z,100894.00
2022-08-21T02:30:43.634Z,100894.00
2022-08-21T02:33:14.667Z,100889.00
2022-08-21T02:35:47.368Z,100888.00
2022-08-21T02:38:24.203Z,100880.00
2022-08-21T02:40:55.985Z,100892.00
2022-08-21T02:43:29.635Z,100888.00
2022-08-21T02:46:01.766Z,100898.00
2022-08-21T02:48:34.857Z,100893.00
2022-08-21T02:51:09.666Z,100887.00
2022-08-21T02:53:44.071Z,100893.00
2022-08-21T02:56:17.252Z,100888.00
2022-08-21T02:58:52.594Z,100879.00
2022-08-21T03:01:24.471Z,100886.00
2022-08-21T03:03:55.276Z,100886.00
2022-08-21T03:06:26.926Z,100893.00
2022-08-21T03:08:59.713Z,100892.00
2022-08-21T03:11:30.298Z,100893.00
2022-08-21T03:14:00.577Z,100893.00
2022-08-21T03:16:34.770Z,100892.00
2022-08-21T03:19:05.765Z,100891.00
2022-08-21T03:21:35.998Z,100890.00
2022-08-21T03:24:10.346Z,100889.00
2022-08-21T03:26:40.648Z,100886.00
2022-08-21T03:29:11.815Z,100890.00
2022-08-21T03:31:42.089Z,100886.00
2022-08-21T03:34:13.126Z,100888.00
2022-08-21T03:36:43.400Z,100883.00
2022-08-21T03:39:16.168Z,100887.00
2022-08-21T03:41:46.510Z,100888.00
2022-08-21T03:44:16.916Z,100893.00
2022-08-21T03:46:47.072Z,100900.00
2022-08-21T03:49:17.251Z,100892.00
2022-08-21T03:51:47.744Z,100893.00
2022-08-21T03:54:32.145Z,100888.00
2022-08-21T03:57:02.612Z,100889.00
2022-08-21T03:59:32.939Z,100895.00
2022-08-21T04:02:06.213Z,100897.00
2022-08-21T04:04:38.221Z,100896.00
2022-08-21T04:07:09.100Z,100894.00
2022-08-21T04:09:41.962Z,100901.00
2022-08-21T04:12:12.711Z,100893.00
2022-08-21T04:14:42.989Z,100906.00
2022-08-21T04:17:13.181Z,100908.00
2022-08-21T04:19:43.488Z,100909.00
2022-08-21T04:22:13.963Z,100910.00
2022-08-21T04:24:47.275Z,100907.00
2022-08-21T04:27:17.593Z,100901.00
2022-08-21T04:29:47.741Z,100901.00
2022-08-21T04:32:25.873Z,100900.00
2022-08-21T04:35:03.607Z,100901.00
2022-08-21T04:37:34.184Z,100898.00
2022-08-21T04:40:18.688Z,100900.00
2022-08-21T04:42:55.684Z,100906.00
2022-08-21T04:45:30.805Z,100910.00
2022-08-21T04:48:08.624Z,100901.00
2022-08-21T04:50:45.758Z,100904.00
2022-08-21T04:53:20.722Z,100895.00
2022-08-21T04:55:54.778Z,100898.00
2022-08-21T04:58:26.916Z,100898.00
2022-08-21T05:00:59.814Z,100907.00
2022-08-21T05:03:32.171Z,100913.00
2022-08-21T05:06:02.689Z,100902.00
2022-08-21T05:08:32.950Z,100909.00
2022-08-21T05:11:08.209Z,100908.00
2022-08-21T05:13:38.969Z,100907.00
2022-08-21T05:16:10.041Z,100914.00
2022-08-21T05:18:40.276Z,100906.00
2022-08-21T05:21:10.739Z,100915.00
2022-08-21T05:23:41.069Z,100918.00
2022-08-21T05:26:18.272Z,100916.00
2022-08-21T05:28:49.080Z,100912.00
2022-08-21T05:31:19.721Z,100919.00
2022-08-21T05:33:50.076Z,100925.00
2022-08-21T05:36:23.513Z,100925.00
2022-08-21T05:38:54.204Z,100921.00
2022-08-21T05:41:27.165Z,100928.00
2022-08-21T05:43:57.356Z,100927.00
2022-08-21T05:46:27.853Z,100915.00
2022-08-21T05:48:58.031Z,100921.00
2022-08-21T05:51:28.393Z,100916.00
2022-08-21T05:53:58.728Z,100921.00
2022-08-21T05:56:31.541Z,100921.00
2022-08-21T05:59:02.059Z,100922.00
2022-08-21T06:01:32.325Z,100927.00
2022-08-21T06:04:02.634Z,100928.00
2022-08-21T06:06:33.032Z,100931.00
2022-08-21T06:09:03.368Z,100934.00
2022-08-21T06:11:36.633Z,100936.00
2022-08-21T06:14:07.612Z,100933.00
2022-08-21T06:16:38.016Z,100939.00
2022-08-21T06:19:08.169Z,100933.00
2022-08-21T06:21:38.459Z,100939.00
2022-08-21T06:24:09.476Z,100940.00
2022-08-21T06:26:42.372Z,100947.00
2022-08-21T06:29:13.713Z,100945.00
2022-08-21T06:31:44.388Z,100944.00
2022-08-21T06:34:14.697Z,100945.00
2022-08-21T06:36:45.225Z,100943.00
2022-08-21T06:39:25.300Z,100946.00
2022-08-21T06:42:04.367Z,100944.00
2022-08-21T06:44:40.351Z,100943.00
2022-08-21T06:47:10.760Z,100935.00
2022-08-21T06:49:41.313Z,100936.00
2022-08-21T06:52:14.536Z,100935.00
2022-08-21T06:54:45.581Z,100938.00
2022-08-21T06:57:18.354Z,100942.00
2022-08-21T06:59:48.691Z,100941.00
2022-08-21T07:02:18.922Z,100946.00
2022-08-21T07:04:49.157Z,100945.00
2022-08-21T07:07:19.378Z,100948.00
2022-08-21T07:09:49.748Z,100934.00
2022-08-21T07:12:23.055Z,100946.00
2022-08-21T07:14:53.312Z,100941.00
2022-08-21T07:17:23.565Z,100941.00
2022-08-21T07:19:54.310Z,100947.00
2022-08-21T07:22:25.172Z,100936.00
2022-08-21T07:24:55.529Z,100944.00
2022-08-21T07:27:29.470Z,100947.00
2022-08-21T07:29:59.568Z,100930.00
2022-08-21T07:32:30.515Z,100937.00
2022-08-21T07:35:00.860Z,100926.00
2022-08-21T07:37:31.222Z,100931.00
2022-08-21T07:40:01.674Z,100927.00
2022-08-21T07:42:34.720Z,100936.00
2022-08-21T07:45:09.646Z,100922.00
2022-08-21T07:47:42.444Z,100936.00
2022-08-21T07:50:15.067Z,100937.00
2022-08-21T07:52:46.517Z,100944.00
2022-08-21T07:55:20.704Z,100941.00
2022-08-21T07:57:54.452Z,100934.00
2022-08-21T08:00:28.887Z,100931.00
2022-08-21T08:03:00.478Z,100933.00
2022-08-21T08:05:34.245Z,100939.00
2022-08-21T08:08:04.558Z,100932.00
2022-08-21T08:10:34.868Z,100932.00
2022-08-21T08:13:10.522Z,100928.00
2022-08-21T08:15:42.072Z,100927.00
2022-08-21T08:18:14.001Z,100933.00
2022-08-21T08:20:44.514Z,100934.00
2022-08-21T08:23:15.285Z,100934.00
2022-08-21T08:25:46.327Z,100936.00
2022-08-21T08:28:19.490Z,100946.00
2022-08-21T08:30:50.711Z,100939.00
2022-08-21T08:33:22.212Z,100937.00
2022-08-21T08:35:54.949Z,100928.00
2022-08-21T08:38:27.888Z,100931.00
2022-08-21T08:41:07.035Z,100933.00
2022-08-21T08:43:40.596Z,100929.00
2022-08-21T08:46:18.200Z,100928.00
2022-08-21T08:48:55.707Z,100933.00
2022-08-21T08:51:31.050Z,100930.00
2022-08-21T08:54:05.353Z,100933.00
2022-08-21T08:56:37.848Z,100924.00
2022-08-21T08:59:19.182Z,100936.00
2022-08-21T09:01:49.803Z,100933.00
2022-08-21T09:04:29.769Z,100935.00
2022-08-21T09:07:17.417Z,100927.00
2022-08-21T09:10:16.493Z,100927.00
2022-08-21T09:12:57.840Z,100934.00
2022-08-21T09:15:37.628Z,100928.00
2022-08-21T09:18:30.464Z,100927.00
2022-08-21T09:21:18.249Z,100935.00
2022-08-21T09:23:59.475Z,100929.00
2022-08-21T09:26:35.560Z,100942.00
2022-08-21T09:29:06.219Z,100935.00
2022-08-21T09:31:41.413Z,100930.00
2022-08-21T09:34:14.890Z,100929.00
2022-08-21T09:36:49.633Z,100934.00
2022-08-21T09:39:29.671Z,100931.00
2022-08-21T09:42:01.914Z,100933.00
2022-08-21T09:44:37.304Z,100926.00
2022-08-21T09:47:11.421Z,100934.00
2022-08-21T09:49:45.499Z,100932.00
2022-08-21T09:52:24.793Z,100916.00
2022-08-21T09:54:58.607Z,100928.00
2022-08-21T09:57:50.248Z,100931.00
2022-08-21T10:00:31.321Z,100935.00
2022-08-21T10:03:19.943Z,100931.00
2022-08-21T10:06:01.369Z,100931.00
2022-08-21T10:08:33.395Z,100929.00
2022-08-21T10:11:09.534Z,100931.00
2022-08-21T10:13:56.524Z,100933.00
2022-08-21T10:16:51.402Z,100930.00
2022-08-21T10:19:36.382Z,100933.00
2022-08-21T10:22:22.152Z,100928.00
2022-08-21T10:25:02.216Z,100927.00
2022-08-21T10:27:45.108Z,100933.00
2022-08-21T10:30:20.623Z,100924.00
2022-08-21T10:33:18.127Z,100927.00
2022-08-21T10:36:02.555Z,100932.00
2022-08-21T10:42:28.138Z,100924.00
2022-08-21T10:45:13.597Z,100920.00
2022-08-21T10:47:56.069Z,100932.00
2022-08-21T10:50:35.537Z,100933.00
2022-08-21T10:53:26.577Z,100934.00
2022-08-21T10:56:03.323Z,100927.00
2022-08-21T10:58:40.459Z,100933.00
2022-08-21T11:01:21.447Z,100933.00
2022-08-21T11:03:58.777Z,100934.00
2022-08-21T11:06:35.810Z,100934.00
2022-08-21T11:09:16.812Z,100940.00
2022-08-21T11:11:59.536Z,100933.00
2022-08-21T11:14:52.460Z,100937.00
2022-08-21T11:17:31.790Z,100932.00
2022-08-21T11:20:11.282Z,100946.00
2022-08-21T11:22:53.954Z,100934.00
2022-08-21T11:25:36.889Z,100937.00
2022-08-21T11:28:14.937Z,100933.00
2022-08-21T11:31:02.728Z,100933.00
2022-08-21T11:33:52.042Z,100937.00
2022-08-21T11:36:34.425Z,100936.00
2022-08-21T11:39:13.727Z,100939.00
2022-08-21T11:42:01.025Z,100933.00
2022-08-21T11:44:45.142Z,100945.00
2022-08-21T11:47:22.952Z,100932.00
2022-08-21T11:50:29.604Z,100933.00
2022-08-21T11:53:05.958Z,100929.00
2022-08-21T11:55:43.608Z,100926.00
2022-08-21T11:58:25.841Z,100933.00
2022-08-21T12:01:00.543Z,100930.00
2022-08-21T12:03:35.530Z,100936.00
2022-08-21T12:06:12.661Z,100932.00
2022-08-21T12:08:45.100Z,100934.00
2022-08-21T12:11:30.986Z,100932.00
2022-08-21T12:14:18.692Z,100922.00
2022-08-21T12:16:51.790Z,100921.00
2022-08-21T12:19:35.939Z,100925.00
2022-08-21T12:22:15.720Z,100923.00
2022-08-21T12:24:49.842Z,100930.00
2022-08-21T12:27:34.268Z,100920.00
2022-08-21T12:30:25.832Z,100932.00
2022-08-21T12:33:04.833Z,100934.00
2022-08-21T12:35:41.592Z,100923.00
2022-08-21T12:38:19.636Z,100932.00
2022-08-21T12:40:57.263Z,100924.00
2022-08-21T12:43:33.639Z,100926.00
2022-08-21T12:46:06.839Z,100920.00
2022-08-21T12:48:46.696Z,100924.00
2022-08-21T12:51:21.351Z,100921.00
2022-08-21T12:53:55.315Z,100931.00
2022-08-21T12:56:28.769Z,100922.00
2022-08-21T12:59:05.360Z,100912.00
2022-08-21T13:01:42.201Z,100916.00
2022-08-21T13:04:18.948Z,100914.00
2022-08-21T13:06:52.477Z,100913.00
2022-08-21T13:09:29.709Z,100916.00
2022-08-21T13:12:00.931Z,100924.00
2022-08-21T13:14:45.136Z,100924.00
2022-08-21T13:17:25.613Z,100917.00
2022-08-21T13:20:03.773Z,100924.00
2022-08-21T13:22:37.996Z,100917.00
2022-08-21T13:25:15.888Z,100920.00
2022-08-21T13:27:49.113Z,100912.00
2022-08-21T13:30:25.779Z,100916.00
2022-08-21T13:33:10.955Z,100918.00
2022-08-21T13:35:54.646Z,100919.00
2022-08-21T13:38:28.877Z,100920.00
2022-08-21T13:41:03.074Z,100928.00
2022-08-21T13:43:39.274Z,100926.00
2022-08-21T13:46:14.737Z,100926.00
2022-08-21T13:48:47.811Z,100927.00
2022-08-21T13:51:18.154Z,100924.00
2022-08-21T13:53:56.797Z,100926.00
2022-08-21T13:56:30.960Z,100917.00
2022-08-21T13:59:03.208Z,100913.00
2022-08-21T14:01:37.151Z,100914.00
2022-08-21T14:04:22.754Z,100916.00
2022-08-21T14:06:53.360Z,100907.00
2022-08-21T14:09:32.856Z,100912.00
2022-08-21T14:12:08.780Z,100908.00
2022-08-21T14:14:52.677Z,100906.00
2022-08-21T14:17:34.153Z,100902.00
2022-08-21T14:20:10.736Z,100901.00
2022-08-21T14:22:44.845Z,100904.00
2022-08-21T14:25:19.289Z,100904.00
2022-08-21T14:27:54.712Z,100901.00
2022-08-21T14:30:34.413Z,100906.00
2022-08-21T14:33:07.114Z,100894.00
2022-08-21T14:35:40.555Z,100885.00
2022-08-21T14:38:17.635Z,100892.00
2022-08-21T14:40:51.720Z,100886.00
2022-08-21T14:43:23.087Z,100883.00
2022-08-21T14:45:53.672Z,100886.00
2022-08-21T14:48:23.956Z,100894.00
2022-08-21T14:51:00.387Z,100899.00
2022-08-21T14:53:31.054Z,100898.00
2022-08-21T14:56:11.155Z,100895.00
2022-08-21T14:58:45.089Z,100898.00
2022-08-21T15:01:19.536Z,100899.00
2022-08-21T15:03:50.036Z,100898.00
2022-08-21T15:06:23.908Z,100903.00
2022-08-21T15:08:54.287Z,100904.00
2022-08-21T15:11:41.375Z,100899.00
2022-08-21T15:14:25.957Z,100903.00
2022-08-21T15:16:56.950Z,100907.00
2022-08-21T15:19:27.401Z,100914.00
2022-08-21T15:22:00.533Z,100911.00
2022-08-21T15:24:31.734Z,100912.00
2022-08-21T15:27:05.694Z,100913.00
2022-08-21T15:29:36.694Z,100904.00
2022-08-21T15:32:24.075Z,100902.00
2022-08-21T15:34:55.436Z,100904.00
2022-08-21T15:37:30.209Z,100893.00
2022-08-21T15:40:00.624Z,100900.00
2022-08-21T15:42:31.577Z,100900.00
2022-08-21T15:45:02.231Z,100895.00
2022-08-21T15:47:37.127Z,100900.00
2022-08-21T15:50:10.238Z,100894.00
2022-08-21T15:52:43.287Z,100897.00
2022-08-21T15:55:14.525Z,100897.00
2022-08-21T15:57:57.484Z,100895.00
2022-08-21T16:00:29.483Z,100901.00
2022-08-21T16:03:02.560Z,100897.00
2022-08-21T16:05:32.976Z,100897.00
2022-08-21T16:08:06.586Z,100889.00
2022-08-21T16:10:38.820Z,100896.00
2022-08-21T16:13:16.086Z,100892.00
2022-08-21T16:15:46.340Z,100895.00
2022-08-21T16:18:16.865Z,100892.00
2022-08-21T16:20:47.070Z,100893.00
2022-08-21T16:23:20.025Z,100901.00
2022-08-21T16:25:50.897Z,100900.00
2022-08-21T16:28:24.898Z,100900.00
2022-08-21T16:30:56.219Z,100903.00
2022-08-21T16:33:31.208Z,100904.00
2022-08-21T16:36:01.535Z,100906.00
2022-08-21T16:38:36.953Z,100902.00
2022-08-21T16:41:12.158Z,100904.00
2022-08-21T16:43:44.129Z,100905.00
2022-08-21T16:46:16.507Z,100908.00
2022-08-21T16:48:47.987Z,100901.00
2022-08-21T16:51:19.343Z,100907.00
2022-08-21T16:53:52.245Z,100907.00
2022-08-21T16:56:23.050Z,100899.00
2022-08-21T16:58:54.257Z,100903.00
2022-08-21T17:01:33.966Z,100900.00
2022-08-21T17:04:04.512Z,100893.00
2022-08-21T17:06:35.617Z,100897.00
2022-08-21T17:09:08.618Z,100896.00
2022-08-21T17:11:44.159Z,100898.00
2022-08-21T17:14:19.674Z,100905.00
2022-08-21T17:16:53.584Z,100899.00
2022-08-21T17:19:24.612Z,100900.00
2022-08-21T17:21:54.948Z,100901.00
2022-08-21T17:24:27.773Z,100899.00
2022-08-21T17:26:59.658Z,100900.00
2022-08-21T17:29:34.548Z,100907.00
2022-08-21T17:32:06.698Z,100910.00
2022-08-21T17:34:37.139Z,100912.00
2022-08-21T17:37:08.708Z,100914.00
2022-08-21T17:39:41.784Z,100914.00
2022-08-21T17:42:14.853Z,100907.00
2022-08-21T17:44:48.756Z,100904.00
2022-08-21T17:47:19.029Z,100904.00
2022-08-21T17:49:49.308Z,100910.00
2022-08-21T17:52:19.712Z,100904.00
2022-08-21T17:54:52.577Z,100903.00
2022-08-21T17:57:28.215Z,100911.00
2022-08-21T17:59:59.205Z,100911.00
2022-08-21T18:02:30.731Z,100914.00
2022-08-21T18:05:01.230Z,100917.00
2022-08-21T18:07:32.682Z,100914.00
2022-08-21T18:10:09.540Z,100920.00
2022-08-21T18:12:40.686Z,100921.00
2022-08-21T18:15:13.720Z,100917.00
2022-08-21T18:17:45.519Z,100932.00
2022-08-21T18:20:17.024Z,100942.00
2022-08-21T18:22:47.534Z,100936.00
2022-08-21T18:25:20.949Z,100935.00
2022-08-21T18:27:53.098Z,100935.00
2022-08-21T18:30:26.245Z,100942.00
2022-08-21T18:32:58.212Z,100939.00
2022-08-21T18:35:29.271Z,100936.00
2022-08-21T18:38:03.021Z,100944.00
2022-08-21T18:40:37.221Z,100933.00
2022-08-21T18:43:14.027Z,100937.00
2022-08-21T18:45:46.292Z,100932.00
2022-08-21T18:48:19.212Z,100936.00
2022-08-21T18:50:50.839Z,100940.00
2022-08-21T18:53:27.617Z,100946.00
2022-08-21T18:56:04.844Z,100948.00
2022-08-21T18:58:36.953Z,100937.00
2022-08-21T19:01:07.813Z,100942.00
2022-08-21T19:03:38.226Z,100944.00
2022-08-21T19:06:09.716Z,100943.00
2022-08-21T19:09:01.627Z,100941.00
2022-08-21T19:11:36.292Z,100938.00
2022-08-21T19:14:17.284Z,100939.00
2022-08-21T19:16:48.761Z,100948.00
2022-08-21T19:19:20.243Z,100945.00
2022-08-21T19:21:50.885Z,100938.00
2022-08-21T19:24:23.089Z,100953.00
2022-08-21T19:26:56.209Z,100954.00
2022-08-21T19:29:34.540Z,100947.00
2022-08-21T19:32:08.829Z,100944.00
2022-08-21T19:34:41.968Z,100937.00
2022-08-21T19:37:16.431Z,100937.00
2022-08-21T19:39:50.144Z,100944.00
2022-08-21T19:42:28.773Z,100953.00
2022-08-21T19:45:01.312Z,100940.00
2022-08-21T19:47:32.994Z,100947.00
2022-08-21T19:52:57.001Z,100948.00
2022-08-21T19:55:27.660Z,100949.00
2022-08-21T19:58:01.568Z,100949.00
2022-08-21T20:00:31.886Z,100948.00
2022-08-21T20:03:03.378Z,100948.00
2022-08-21T20:05:39.915Z,100945.00
2022-08-21T20:08:11.658Z,100947.00
2022-08-21T20:10:53.215Z,100947.00
2022-08-21T20:13:26.822Z,100940.00
2022-08-21T20:15:57.853Z,100948.00
2022-08-21T20:18:28.199Z,100953.00
2022-08-21T20:20:59.444Z,100947.00
2022-08-21T20:23:30.602Z,100955.00
2022-08-21T20:26:05.805Z,100954.00
2022-08-21T20:28:40.328Z,100963.00
2022-08-21T20:31:11.011Z,100955.00
2022-08-21T20:33:45.095Z,100954.00
2022-08-21T20:36:20.001Z,100952.00
2022-08-21T20:38:51.927Z,100953.00
2022-08-21T20:41:30.416Z,100950.00
2022-08-21T20:44:05.830Z,100959.00
2022-08-21T20:46:38.088Z,100958.00
2022-08-21T20:49:10.005Z,100957.00
2022-08-21T20:51:46.174Z,100957.00
2022-08-21T20:54:25.028Z,100954.00
2022-08-21T20:57:03.085Z,100956.00
2022-08-21T20:59:52.617Z,100958.00
2022-08-21T21:02:46.091Z,100961.00
2022-08-21T21:05:22.206Z,100962.00
2022-08-21T21:08:03.176Z,100956.00
2022-08-21T21:10:42.001Z,100964.00
2022-08-21T21:13:23.443Z,100951.00
2022-08-21T21:16:00.154Z,100953.00
2022-08-21T21:18:35.834Z,100955.00
2022-08-21T21:21:18.147Z,100952.00
2022-08-21T21:23:54.794Z,100953.00
2022-08-21T21:26:30.971Z,100953.00
2022-08-21T21:29:14.997Z,100958.00
2022-08-21T21:31:48.120Z,100961.00
2022-08-21T21:34:19.746Z,100963.00
2022-08-21T21:36:57.826Z,100958.00
2022-08-21T21:39:36.636Z,100956.00
2022-08-21T21:42:18.304Z,100958.00
2022-08-21T21:45:16.399Z,100964.00
2022-08-21T21:48:09.472Z,100957.00
2022-08-21T21:51:00.925Z,100956.00
2022-08-21T21:53:52.470Z,100963.00
2022-08-21T21:56:35.111Z,100963.00
2022-08-21T21:59:31.853Z,100969.00
2022-08-21T22:02:12.417Z,100970.00
2022-08-21T22:04:55.301Z,100979.00
2022-08-21T22:07:37.298Z,100969.00
2022-08-21T22:10:30.551Z,100975.00
2022-08-21T22:13:26.147Z,100975.00
2022-08-21T22:15:57.544Z,100975.00
2022-08-21T22:18:34.816Z,100977.00
2022-08-21T22:21:15.125Z,100973.00
2022-08-21T22:23:50.101Z,100969.00
2022-08-21T22:26:24.073Z,100979.00
2022-08-21T22:28:56.121Z,100974.00
2022-08-21T22:31:29.653Z,100971.00
2022-08-21T22:34:14.274Z,100975.00
2022-08-21T22:37:00.920Z,100968.00
2022-08-21T22:39:39.056Z,100973.00
2022-08-21T22:42:14.047Z,100975.00
2022-08-21T22:44:54.756Z,100978.00
2022-08-21T22:47:27.485Z,100979.00
2022-08-21T22:50:03.962Z,100981.00
2022-08-21T22:52:40.933Z,100979.00
2022-08-21T22:55:30.110Z,100983.00
2022-08-21T22:58:11.633Z,100983.00
2022-08-21T23:00:55.257Z,100983.00
2022-08-21T23:03:35.877Z,100982.00
2022-08-21T23:06:25.293Z,100986.00
2022-08-21T23:09:00.426Z,100987.00
2022-08-21T23:11:42.590Z,100988.00
2022-08-21T23:14:14.581Z,100984.00
2022-08-21T23:16:54.032Z,100979.00
2022-08-21T23:19:38.342Z,100980.00
2022-08-21T23:22:28.399Z,100984.00
2022-08-21T23:25:15.305Z,100972.00
2022-08-21T23:28:00.781Z,100971.00
2022-08-21T23:30:45.129Z,100976.00
2022-08-21T23:33:31.837Z,100976.00
2022-08-21T23:36:26.829Z,100976.00
2022-08-21T23:39:23.006Z,100971.00
2022-08-21T23:42:04.149Z,100965.00
2022-08-21T23:44:49.477Z,100968.00
2022-08-21T23:47:34.856Z,100973.00
2022-08-21T23:50:14.204Z,100967.00
2022-08-21T23:53:22.527Z,100978.00
2022-08-21T23:56:18.450Z,100975.00
2022-08-21T23:59:00.781Z,100974.00
